sensor_id;sensor_type;location;lat;lon;timestamp;P1;durP1;ratioP1;P2;durP2;ratioP2
20084;SDS011;10202;48.474;9.138;2023-04-07T00:00:02;9.32;;;5.95;;
20084;SDS011;10202;48.474;9.138;2023-04-07T00:02:36;8.95;;;5.88;;
20084;SDS011;10202;48.474;9.138;2023-04-07T00:05:07;8.82;;;5.68;;
20084;SDS011;10202;48.474;9.138;2023-04-07T00:07:37;9.15;;;6.20;;
20084;SDS011;10202;48.474;9.138;2023-04-07T00:10:02;8.80;;;6.43;;
20084;SDS011;10202;48.474;9.138;2023-04-07T00:12:31;8.73;;;6.07;;
20084;SDS011;10202;48.474;9.138;2023-04-07T00:15:02;8.43;;;5.72;;
20084;SDS011;10202;48.474;9.138;2023-04-07T00:17:32;10.73;;;6.57;;
20084;SDS011;10202;48.474;9.138;2023-04-07T00:20:00;7.95;;;6.38;;
20084;SDS011;10202;48.474;9.138;2023-04-07T00:22:31;10.38;;;6.80;;
20084;SDS011;10202;48.474;9.138;2023-04-07T00:24:58;9.98;;;6.78;;
20084;SDS011;10202;48.474;9.138;2023-04-07T00:27:26;9.55;;;6.82;;
20084;SDS011;10202;48.474;9.138;2023-04-07T00:29:56;9.55;;;6.28;;
20084;SDS011;10202;48.474;9.138;2023-04-07T00:32:22;8.52;;;6.40;;
20084;SDS011;10202;48.474;9.138;2023-04-07T00:34:53;9.68;;;6.50;;
20084;SDS011;10202;48.474;9.138;2023-04-07T00:37:23;10.38;;;6.63;;
20084;SDS011;10202;48.474;9.138;2023-04-07T00:39:53;9.60;;;6.60;;
20084;SDS011;10202;48.474;9.138;2023-04-07T00:42:25;9.30;;;6.25;;
20084;SDS011;10202;48.474;9.138;2023-04-07T00:44:50;9.77;;;6.72;;
20084;SDS011;10202;48.474;9.138;2023-04-07T00:47:21;9.55;;;6.85;;
20084;SDS011;10202;48.474;9.138;2023-04-07T00:49:47;9.15;;;6.15;;
20084;SDS011;10202;48.474;9.138;2023-04-07T00:52:12;10.63;;;6.80;;
20084;SDS011;10202;48.474;9.138;2023-04-07T00:54:43;9.90;;;6.63;;
20084;SDS011;10202;48.474;9.138;2023-04-07T00:57:12;8.68;;;6.18;;
20084;SDS011;10202;48.474;9.138;2023-04-07T00:59:42;9.20;;;6.30;;
20084;SDS011;10202;48.474;9.138;2023-04-07T01:02:17;10.75;;;7.35;;
20084;SDS011;10202;48.474;9.138;2023-04-07T01:10:36;12.77;;;7.18;;
20084;SDS011;10202;48.474;9.138;2023-04-07T01:13:26;11.23;;;7.20;;
20084;SDS011;10202;48.474;9.138;2023-04-07T01:16:07;11.70;;;7.43;;
20084;SDS011;10202;48.474;9.138;2023-04-07T01:18:47;12.07;;;7.40;;
20084;SDS011;10202;48.474;9.138;2023-04-07T01:21:20;11.50;;;7.60;;
20084;SDS011;10202;48.474;9.138;2023-04-07T01:26:58;12.95;;;7.88;;
20084;SDS011;10202;48.474;9.138;2023-04-07T01:32:08;12.73;;;7.82;;
20084;SDS011;10202;48.474;9.138;2023-04-07T01:34:38;10.23;;;7.10;;
20084;SDS011;10202;48.474;9.138;2023-04-07T01:37:07;9.40;;;6.50;;
20084;SDS011;10202;48.474;9.138;2023-04-07T01:39:36;12.02;;;7.43;;
20084;SDS011;10202;48.474;9.138;2023-04-07T01:42:05;10.25;;;7.45;;
20084;SDS011;10202;48.474;9.138;2023-04-07T01:44:33;10.57;;;6.75;;
20084;SDS011;10202;48.474;9.138;2023-04-07T01:46:59;11.48;;;6.88;;
20084;SDS011;10202;48.474;9.138;2023-04-07T01:49:26;10.32;;;6.90;;
20084;SDS011;10202;48.474;9.138;2023-04-07T01:51:57;11.27;;;6.97;;
20084;SDS011;10202;48.474;9.138;2023-04-07T01:54:26;11.90;;;6.85;;
20084;SDS011;10202;48.474;9.138;2023-04-07T01:56:54;13.43;;;7.25;;
20084;SDS011;10202;48.474;9.138;2023-04-07T01:59:21;9.30;;;6.55;;
20084;SDS011;10202;48.474;9.138;2023-04-07T02:01:49;11.10;;;6.43;;
20084;SDS011;10202;48.474;9.138;2023-04-07T02:04:18;10.38;;;6.35;;
20084;SDS011;10202;48.474;9.138;2023-04-07T02:07:02;10.30;;;6.85;;
20084;SDS011;10202;48.474;9.138;2023-04-07T02:09:38;10.10;;;6.82;;
20084;SDS011;10202;48.474;9.138;2023-04-07T02:12:10;9.55;;;7.35;;
20084;SDS011;10202;48.474;9.138;2023-04-07T02:14:50;11.98;;;8.20;;
20084;SDS011;10202;48.474;9.138;2023-04-07T02:17:15;9.93;;;7.03;;
20084;SDS011;10202;48.474;9.138;2023-04-07T02:19:44;11.65;;;7.65;;
20084;SDS011;10202;48.474;9.138;2023-04-07T02:22:15;13.07;;;7.22;;
20084;SDS011;10202;48.474;9.138;2023-04-07T02:24:41;11.80;;;7.78;;
20084;SDS011;10202;48.474;9.138;2023-04-07T02:27:10;11.02;;;7.88;;
20084;SDS011;10202;48.474;9.138;2023-04-07T02:29:36;12.88;;;7.38;;
20084;SDS011;10202;48.474;9.138;2023-04-07T02:32:07;11.23;;;7.20;;
20084;SDS011;10202;48.474;9.138;2023-04-07T02:34:38;12.77;;;7.43;;
20084;SDS011;10202;48.474;9.138;2023-04-07T02:37:05;11.70;;;7.50;;
20084;SDS011;10202;48.474;9.138;2023-04-07T02:39:32;11.35;;;7.22;;
20084;SDS011;10202;48.474;9.138;2023-04-07T02:42:01;11.73;;;7.35;;
20084;SDS011;10202;48.474;9.138;2023-04-07T02:44:31;10.52;;;7.05;;
20084;SDS011;10202;48.474;9.138;2023-04-07T02:46:56;8.95;;;6.35;;
20084;SDS011;10202;48.474;9.138;2023-04-07T02:49:22;12.85;;;7.25;;
20084;SDS011;10202;48.474;9.138;2023-04-07T02:51:52;10.88;;;7.43;;
20084;SDS011;10202;48.474;9.138;2023-04-07T02:54:20;9.68;;;6.97;;
20084;SDS011;10202;48.474;9.138;2023-04-07T02:56:50;10.88;;;7.38;;
20084;SDS011;10202;48.474;9.138;2023-04-07T02:59:18;11.13;;;7.07;;
20084;SDS011;10202;48.474;9.138;2023-04-07T03:01:47;9.25;;;6.80;;
20084;SDS011;10202;48.474;9.138;2023-04-07T03:04:13;10.25;;;6.63;;
20084;SDS011;10202;48.474;9.138;2023-04-07T03:06:38;11.23;;;6.63;;
20084;SDS011;10202;48.474;9.138;2023-04-07T03:09:11;13.60;;;7.18;;
20084;SDS011;10202;48.474;9.138;2023-04-07T03:11:39;11.38;;;7.20;;
20084;SDS011;10202;48.474;9.138;2023-04-07T03:14:06;12.23;;;7.45;;
20084;SDS011;10202;48.474;9.138;2023-04-07T03:16:46;8.85;;;6.60;;
20084;SDS011;10202;48.474;9.138;2023-04-07T03:19:13;12.30;;;7.80;;
20084;SDS011;10202;48.474;9.138;2023-04-07T03:21:47;13.60;;;7.47;;
20084;SDS011;10202;48.474;9.138;2023-04-07T03:24:13;11.65;;;7.50;;
20084;SDS011;10202;48.474;9.138;2023-04-07T03:26:38;12.70;;;6.80;;
20084;SDS011;10202;48.474;9.138;2023-04-07T03:29:10;12.63;;;7.28;;
20084;SDS011;10202;48.474;9.138;2023-04-07T03:31:38;9.50;;;6.78;;
20084;SDS011;10202;48.474;9.138;2023-04-07T03:34:05;10.98;;;7.57;;
20084;SDS011;10202;48.474;9.138;2023-04-07T03:36:31;9.93;;;6.70;;
20084;SDS011;10202;48.474;9.138;2023-04-07T03:39:02;12.80;;;7.40;;
20084;SDS011;10202;48.474;9.138;2023-04-07T03:41:31;10.93;;;6.95;;
20084;SDS011;10202;48.474;9.138;2023-04-07T03:43:59;12.75;;;7.10;;
20084;SDS011;10202;48.474;9.138;2023-04-07T03:46:26;12.30;;;7.10;;
20084;SDS011;10202;48.474;9.138;2023-04-07T03:48:54;13.18;;;7.00;;
20084;SDS011;10202;48.474;9.138;2023-04-07T03:51:23;10.05;;;6.50;;
20084;SDS011;10202;48.474;9.138;2023-04-07T03:53:53;9.80;;;7.15;;
20084;SDS011;10202;48.474;9.138;2023-04-07T03:56:35;10.75;;;6.93;;
20084;SDS011;10202;48.474;9.138;2023-04-07T03:59:05;11.57;;;6.75;;
20084;SDS011;10202;48.474;9.138;2023-04-07T04:01:43;12.18;;;7.50;;
20084;SDS011;10202;48.474;9.138;2023-04-07T04:04:14;11.18;;;7.32;;
20084;SDS011;10202;48.474;9.138;2023-04-07T04:06:42;11.73;;;7.10;;
20084;SDS011;10202;48.474;9.138;2023-04-07T04:09:21;11.43;;;7.22;;
20084;SDS011;10202;48.474;9.138;2023-04-07T04:11:52;10.60;;;7.47;;
20084;SDS011;10202;48.474;9.138;2023-04-07T04:14:18;8.73;;;6.75;;
20084;SDS011;10202;48.474;9.138;2023-04-07T04:16:53;11.18;;;7.32;;
20084;SDS011;10202;48.474;9.138;2023-04-07T04:19:29;10.15;;;6.97;;
20084;SDS011;10202;48.474;9.138;2023-04-07T04:22:00;11.15;;;6.95;;
20084;SDS011;10202;48.474;9.138;2023-04-07T04:24:33;8.25;;;6.20;;
20084;SDS011;10202;48.474;9.138;2023-04-07T04:27:00;8.02;;;5.97;;
20084;SDS011;10202;48.474;9.138;2023-04-07T04:29:29;9.13;;;6.43;;
20084;SDS011;10202;48.474;9.138;2023-04-07T04:32:02;7.35;;;5.20;;
20084;SDS011;10202;48.474;9.138;2023-04-07T04:34:32;10.43;;;5.95;;
20084;SDS011;10202;48.474;9.138;2023-04-07T04:37:00;8.75;;;5.28;;
20084;SDS011;10202;48.474;9.138;2023-04-07T04:39:31;12.05;;;5.63;;
20084;SDS011;10202;48.474;9.138;2023-04-07T04:42:02;9.18;;;5.75;;
20084;SDS011;10202;48.474;9.138;2023-04-07T04:44:34;9.20;;;5.90;;
20084;SDS011;10202;48.474;9.138;2023-04-07T04:47:02;7.43;;;5.65;;
20084;SDS011;10202;48.474;9.138;2023-04-07T04:49:29;9.27;;;6.32;;
20084;SDS011;10202;48.474;9.138;2023-04-07T04:51:59;9.65;;;6.07;;
20084;SDS011;10202;48.474;9.138;2023-04-07T04:54:35;13.10;;;7.20;;
20084;SDS011;10202;48.474;9.138;2023-04-07T04:57:03;8.75;;;6.57;;
20084;SDS011;10202;48.474;9.138;2023-04-07T04:59:29;10.68;;;6.40;;
20084;SDS011;10202;48.474;9.138;2023-04-07T05:02:01;9.70;;;6.50;;
20084;SDS011;10202;48.474;9.138;2023-04-07T05:04:32;9.52;;;6.30;;
20084;SDS011;10202;48.474;9.138;2023-04-07T05:07:13;16.55;;;6.25;;
20084;SDS011;10202;48.474;9.138;2023-04-07T05:09:43;9.13;;;5.97;;
20084;SDS011;10202;48.474;9.138;2023-04-07T05:12:12;8.23;;;6.22;;
20084;SDS011;10202;48.474;9.138;2023-04-07T05:14:48;11.95;;;7.30;;
20084;SDS011;10202;48.474;9.138;2023-04-07T05:17:24;11.07;;;7.88;;
20084;SDS011;10202;48.474;9.138;2023-04-07T05:19:59;12.88;;;8.80;;
20084;SDS011;10202;48.474;9.138;2023-04-07T05:22:36;20.27;;;8.27;;
20084;SDS011;10202;48.474;9.138;2023-04-07T05:25:12;13.55;;;8.40;;
20084;SDS011;10202;48.474;9.138;2023-04-07T05:27:41;10.90;;;7.03;;
20084;SDS011;10202;48.474;9.138;2023-04-07T05:30:13;12.93;;;7.68;;
20084;SDS011;10202;48.474;9.138;2023-04-07T05:32:42;10.32;;;6.75;;
20084;SDS011;10202;48.474;9.138;2023-04-07T05:35:20;10.88;;;6.18;;
20084;SDS011;10202;48.474;9.138;2023-04-07T05:37:52;9.55;;;6.30;;
20084;SDS011;10202;48.474;9.138;2023-04-07T05:40:22;6.88;;;5.38;;
20084;SDS011;10202;48.474;9.138;2023-04-07T05:42:50;11.25;;;6.00;;
20084;SDS011;10202;48.474;9.138;2023-04-07T05:45:21;6.07;;;5.05;;
20084;SDS011;10202;48.474;9.138;2023-04-07T05:47:49;8.15;;;5.90;;
20084;SDS011;10202;48.474;9.138;2023-04-07T05:50:29;10.57;;;6.22;;
20084;SDS011;10202;48.474;9.138;2023-04-07T05:53:02;9.00;;;6.13;;
20084;SDS011;10202;48.474;9.138;2023-04-07T05:55:29;10.95;;;7.40;;
20084;SDS011;10202;48.474;9.138;2023-04-07T05:57:58;11.18;;;8.25;;
20084;SDS011;10202;48.474;9.138;2023-04-07T06:00:27;11.63;;;8.63;;
20084;SDS011;10202;48.474;9.138;2023-04-07T06:03:07;10.63;;;7.55;;
20084;SDS011;10202;48.474;9.138;2023-04-07T06:05:46;12.38;;;8.13;;
20084;SDS011;10202;48.474;9.138;2023-04-07T06:08:16;10.52;;;7.50;;
20084;SDS011;10202;48.474;9.138;2023-04-07T06:10:47;11.25;;;8.45;;
20084;SDS011;10202;48.474;9.138;2023-04-07T06:13:17;15.00;;;8.20;;
20084;SDS011;10202;48.474;9.138;2023-04-07T06:15:51;12.25;;;7.82;;
20084;SDS011;10202;48.474;9.138;2023-04-07T06:18:23;11.55;;;7.97;;
20084;SDS011;10202;48.474;9.138;2023-04-07T06:20:51;10.40;;;7.22;;
20084;SDS011;10202;48.474;9.138;2023-04-07T06:23:19;12.52;;;7.15;;
20084;SDS011;10202;48.474;9.138;2023-04-07T06:25:50;10.20;;;7.07;;
20084;SDS011;10202;48.474;9.138;2023-04-07T06:28:19;8.63;;;5.70;;
20084;SDS011;10202;48.474;9.138;2023-04-07T06:30:47;7.78;;;5.88;;
20084;SDS011;10202;48.474;9.138;2023-04-07T06:33:14;9.00;;;6.05;;
20084;SDS011;10202;48.474;9.138;2023-04-07T06:35:40;13.07;;;6.65;;
20084;SDS011;10202;48.474;9.138;2023-04-07T06:38:08;10.55;;;6.30;;
20084;SDS011;10202;48.474;9.138;2023-04-07T06:40:37;9.25;;;6.47;;
20084;SDS011;10202;48.474;9.138;2023-04-07T06:43:05;11.35;;;7.07;;
20084;SDS011;10202;48.474;9.138;2023-04-07T06:45:42;10.48;;;7.22;;
20084;SDS011;10202;48.474;9.138;2023-04-07T06:48:07;9.93;;;7.53;;
20084;SDS011;10202;48.474;9.138;2023-04-07T06:50:36;11.23;;;7.57;;
20084;SDS011;10202;48.474;9.138;2023-04-07T06:53:04;10.43;;;7.75;;
20084;SDS011;10202;48.474;9.138;2023-04-07T06:55:32;14.70;;;8.00;;
20084;SDS011;10202;48.474;9.138;2023-04-07T06:58:03;12.95;;;8.07;;
20084;SDS011;10202;48.474;9.138;2023-04-07T07:00:31;11.07;;;7.28;;
20084;SDS011;10202;48.474;9.138;2023-04-07T07:02:56;11.25;;;7.20;;
20084;SDS011;10202;48.474;9.138;2023-04-07T07:05:22;13.23;;;8.15;;
20084;SDS011;10202;48.474;9.138;2023-04-07T07:07:48;12.98;;;8.02;;
20084;SDS011;10202;48.474;9.138;2023-04-07T07:10:14;10.07;;;7.50;;
20084;SDS011;10202;48.474;9.138;2023-04-07T07:12:44;11.05;;;7.68;;
20084;SDS011;10202;48.474;9.138;2023-04-07T07:15:15;12.35;;;8.02;;
20084;SDS011;10202;48.474;9.138;2023-04-07T07:17:45;14.73;;;9.57;;
20084;SDS011;10202;48.474;9.138;2023-04-07T07:20:15;14.50;;;8.80;;
20084;SDS011;10202;48.474;9.138;2023-04-07T07:22:43;16.80;;;9.77;;
20084;SDS011;10202;48.474;9.138;2023-04-07T07:25:11;14.80;;;9.63;;
20084;SDS011;10202;48.474;9.138;2023-04-07T07:27:40;11.88;;;8.18;;
20084;SDS011;10202;48.474;9.138;2023-04-07T07:30:05;14.13;;;8.38;;
20084;SDS011;10202;48.474;9.138;2023-04-07T07:32:32;15.57;;;8.32;;
20084;SDS011;10202;48.474;9.138;2023-04-07T07:34:57;11.98;;;8.23;;
20084;SDS011;10202;48.474;9.138;2023-04-07T07:37:23;13.13;;;8.35;;
20084;SDS011;10202;48.474;9.138;2023-04-07T07:39:48;12.57;;;8.02;;
20084;SDS011;10202;48.474;9.138;2023-04-07T07:42:19;13.77;;;7.40;;
20084;SDS011;10202;48.474;9.138;2023-04-07T07:44:44;14.45;;;8.93;;
20084;SDS011;10202;48.474;9.138;2023-04-07T07:47:12;12.45;;;8.25;;
20084;SDS011;10202;48.474;9.138;2023-04-07T07:49:38;18.00;;;8.95;;
20084;SDS011;10202;48.474;9.138;2023-04-07T07:52:04;14.57;;;8.57;;
20084;SDS011;10202;48.474;9.138;2023-04-07T07:54:32;12.80;;;8.70;;
20084;SDS011;10202;48.474;9.138;2023-04-07T07:57:00;14.20;;;10.18;;
20084;SDS011;10202;48.474;9.138;2023-04-07T07:59:29;12.57;;;8.63;;
20084;SDS011;10202;48.474;9.138;2023-04-07T08:01:57;15.32;;;9.02;;
20084;SDS011;10202;48.474;9.138;2023-04-07T08:04:27;12.15;;;8.00;;
20084;SDS011;10202;48.474;9.138;2023-04-07T08:06:55;9.35;;;7.20;;
20084;SDS011;10202;48.474;9.138;2023-04-07T08:09:21;9.43;;;7.18;;
20084;SDS011;10202;48.474;9.138;2023-04-07T08:11:46;12.15;;;7.38;;
20084;SDS011;10202;48.474;9.138;2023-04-07T08:14:17;8.45;;;6.53;;
20084;SDS011;10202;48.474;9.138;2023-04-07T08:16:44;9.38;;;6.50;;
20084;SDS011;10202;48.474;9.138;2023-04-07T08:19:10;10.75;;;7.72;;
20084;SDS011;10202;48.474;9.138;2023-04-07T08:21:37;8.27;;;6.88;;
20084;SDS011;10202;48.474;9.138;2023-04-07T08:24:05;28.42;;;18.95;;
20084;SDS011;10202;48.474;9.138;2023-04-07T08:26:31;11.15;;;7.05;;
20084;SDS011;10202;48.474;9.138;2023-04-07T08:28:57;11.63;;;7.07;;
20084;SDS011;10202;48.474;9.138;2023-04-07T08:31:25;12.18;;;6.35;;
20084;SDS011;10202;48.474;9.138;2023-04-07T08:33:55;9.13;;;6.15;;
20084;SDS011;10202;48.474;9.138;2023-04-07T08:36:24;10.32;;;6.38;;
20084;SDS011;10202;48.474;9.138;2023-04-07T08:38:56;8.35;;;6.07;;
20084;SDS011;10202;48.474;9.138;2023-04-07T08:41:26;8.80;;;5.57;;
20084;SDS011;10202;48.474;9.138;2023-04-07T08:43:56;6.65;;;4.95;;
20084;SDS011;10202;48.474;9.138;2023-04-07T08:46:25;7.18;;;5.20;;
20084;SDS011;10202;48.474;9.138;2023-04-07T08:48:56;8.55;;;5.18;;
20084;SDS011;10202;48.474;9.138;2023-04-07T08:51:26;12.80;;;5.10;;
20084;SDS011;10202;48.474;9.138;2023-04-07T08:54:03;8.45;;;5.00;;
20084;SDS011;10202;48.474;9.138;2023-04-07T08:56:34;7.90;;;4.95;;
20084;SDS011;10202;48.474;9.138;2023-04-07T08:59:10;11.55;;;4.90;;
20084;SDS011;10202;48.474;9.138;2023-04-07T09:01:39;6.78;;;4.10;;
20084;SDS011;10202;48.474;9.138;2023-04-07T09:04:06;5.70;;;4.30;;
20084;SDS011;10202;48.474;9.138;2023-04-07T09:06:38;5.93;;;4.50;;
20084;SDS011;10202;48.474;9.138;2023-04-07T09:09:03;7.15;;;4.80;;
20084;SDS011;10202;48.474;9.138;2023-04-07T09:11:37;11.85;;;4.57;;
20084;SDS011;10202;48.474;9.138;2023-04-07T09:14:06;5.80;;;4.22;;
20084;SDS011;10202;48.474;9.138;2023-04-07T09:16:32;5.78;;;3.88;;
20084;SDS011;10202;48.474;9.138;2023-04-07T09:19:04;6.88;;;4.28;;
20084;SDS011;10202;48.474;9.138;2023-04-07T09:21:47;9.85;;;5.20;;
20084;SDS011;10202;48.474;9.138;2023-04-07T09:27:09;9.15;;;4.82;;
20084;SDS011;10202;48.474;9.138;2023-04-07T09:29:45;9.45;;;4.65;;
20084;SDS011;10202;48.474;9.138;2023-04-07T09:32:33;6.38;;;4.25;;
20084;SDS011;10202;48.474;9.138;2023-04-07T09:35:04;7.90;;;4.45;;
20084;SDS011;10202;48.474;9.138;2023-04-07T09:37:35;9.40;;;4.90;;
20084;SDS011;10202;48.474;9.138;2023-04-07T09:40:03;7.30;;;4.00;;
20084;SDS011;10202;48.474;9.138;2023-04-07T09:42:31;9.73;;;4.10;;
20084;SDS011;10202;48.474;9.138;2023-04-07T09:45:02;5.55;;;3.80;;
20084;SDS011;10202;48.474;9.138;2023-04-07T09:47:31;17.80;;;9.45;;
20084;SDS011;10202;48.474;9.138;2023-04-07T09:50:03;6.45;;;3.67;;
20084;SDS011;10202;48.474;9.138;2023-04-07T09:52:50;5.93;;;3.95;;
20084;SDS011;10202;48.474;9.138;2023-04-07T09:55:20;4.18;;;3.17;;
20084;SDS011;10202;48.474;9.138;2023-04-07T09:57:50;4.47;;;2.88;;
20084;SDS011;10202;48.474;9.138;2023-04-07T10:00:17;11.30;;;3.25;;
20084;SDS011;10202;48.474;9.138;2023-04-07T10:02:43;5.95;;;2.95;;
20084;SDS011;10202;48.474;9.138;2023-04-07T10:05:09;5.25;;;2.97;;
20084;SDS011;10202;48.474;9.138;2023-04-07T10:07:35;6.03;;;3.17;;
20084;SDS011;10202;48.474;9.138;2023-04-07T10:10:06;8.93;;;3.22;;
20084;SDS011;10202;48.474;9.138;2023-04-07T10:12:41;3.97;;;2.80;;
20084;SDS011;10202;48.474;9.138;2023-04-07T10:15:12;4.70;;;2.60;;
20084;SDS011;10202;48.474;9.138;2023-04-07T10:17:44;8.07;;;3.05;;
20084;SDS011;10202;48.474;9.138;2023-04-07T10:20:16;3.42;;;2.45;;
20084;SDS011;10202;48.474;9.138;2023-04-07T10:22:43;7.05;;;3.05;;
20084;SDS011;10202;48.474;9.138;2023-04-07T10:25:13;4.82;;;2.42;;
20084;SDS011;10202;48.474;9.138;2023-04-07T10:27:47;4.28;;;2.85;;
20084;SDS011;10202;48.474;9.138;2023-04-07T10:30:29;5.10;;;2.45;;
20084;SDS011;10202;48.474;9.138;2023-04-07T10:32:58;5.40;;;2.70;;
20084;SDS011;10202;48.474;9.138;2023-04-07T10:35:26;4.45;;;2.22;;
20084;SDS011;10202;48.474;9.138;2023-04-07T10:38:14;6.95;;;3.00;;
20084;SDS011;10202;48.474;9.138;2023-04-07T10:40:45;4.80;;;3.13;;
20084;SDS011;10202;48.474;9.138;2023-04-07T10:43:13;5.47;;;2.60;;
20084;SDS011;10202;48.474;9.138;2023-04-07T10:46:12;4.65;;;2.50;;
20084;SDS011;10202;48.474;9.138;2023-04-07T10:48:37;5.43;;;2.60;;
20084;SDS011;10202;48.474;9.138;2023-04-07T10:53:33;4.43;;;2.70;;
20084;SDS011;10202;48.474;9.138;2023-04-07T10:56:02;5.15;;;2.50;;
20084;SDS011;10202;48.474;9.138;2023-04-07T10:58:33;4.68;;;2.30;;
20084;SDS011;10202;48.474;9.138;2023-04-07T11:03:33;7.03;;;2.50;;
20084;SDS011;10202;48.474;9.138;2023-04-07T11:06:12;6.20;;;2.85;;
20084;SDS011;10202;48.474;9.138;2023-04-07T11:08:42;5.13;;;2.70;;
20084;SDS011;10202;48.474;9.138;2023-04-07T11:11:16;6.15;;;2.95;;
20084;SDS011;10202;48.474;9.138;2023-04-07T11:14:02;6.95;;;3.20;;
20084;SDS011;10202;48.474;9.138;2023-04-07T11:16:35;5.13;;;2.60;;
20084;SDS011;10202;48.474;9.138;2023-04-07T11:19:03;4.57;;;2.50;;
20084;SDS011;10202;48.474;9.138;2023-04-07T11:21:33;4.63;;;2.72;;
20084;SDS011;10202;48.474;9.138;2023-04-07T11:24:03;5.03;;;2.72;;
20084;SDS011;10202;48.474;9.138;2023-04-07T11:26:35;6.47;;;2.70;;
20084;SDS011;10202;48.474;9.138;2023-04-07T11:29:03;4.50;;;2.45;;
20084;SDS011;10202;48.474;9.138;2023-04-07T11:31:29;2.30;;;2.10;;
20084;SDS011;10202;48.474;9.138;2023-04-07T11:33:59;3.78;;;2.50;;
20084;SDS011;10202;48.474;9.138;2023-04-07T11:38:53;4.95;;;2.88;;
20084;SDS011;10202;48.474;9.138;2023-04-07T11:41:22;5.95;;;3.00;;
20084;SDS011;10202;48.474;9.138;2023-04-07T11:44:10;4.90;;;2.95;;
20084;SDS011;10202;48.474;9.138;2023-04-07T11:46:47;8.85;;;3.40;;
20084;SDS011;10202;48.474;9.138;2023-04-07T11:49:21;3.92;;;2.53;;
20084;SDS011;10202;48.474;9.138;2023-04-07T11:57:10;4.07;;;2.70;;
20084;SDS011;10202;48.474;9.138;2023-04-07T11:59:39;4.10;;;1.98;;
20084;SDS011;10202;48.474;9.138;2023-04-07T12:02:10;3.70;;;2.20;;
20084;SDS011;10202;48.474;9.138;2023-04-07T12:04:36;7.75;;;4.20;;
20084;SDS011;10202;48.474;9.138;2023-04-07T12:07:13;9.35;;;4.70;;
20084;SDS011;10202;48.474;9.138;2023-04-07T12:09:41;4.40;;;2.60;;
20084;SDS011;10202;48.474;9.138;2023-04-07T12:12:06;6.65;;;2.75;;
20084;SDS011;10202;48.474;9.138;2023-04-07T12:14:37;4.47;;;1.55;;
20084;SDS011;10202;48.474;9.138;2023-04-07T12:17:05;5.47;;;1.70;;
20084;SDS011;10202;48.474;9.138;2023-04-07T12:19:41;3.83;;;2.00;;
20084;SDS011;10202;48.474;9.138;2023-04-07T12:22:09;6.05;;;1.80;;
20084;SDS011;10202;48.474;9.138;2023-04-07T12:24:34;3.47;;;2.05;;
20084;SDS011;10202;48.474;9.138;2023-04-07T12:27:00;4.30;;;2.00;;
20084;SDS011;10202;48.474;9.138;2023-04-07T12:29:30;3.28;;;1.90;;
20084;SDS011;10202;48.474;9.138;2023-04-07T12:32:00;4.63;;;2.10;;
20084;SDS011;10202;48.474;9.138;2023-04-07T12:34:26;2.28;;;1.85;;
20084;SDS011;10202;48.474;9.138;2023-04-07T12:36:54;3.33;;;1.50;;
20084;SDS011;10202;48.474;9.138;2023-04-07T12:39:20;3.28;;;1.58;;
20084;SDS011;10202;48.474;9.138;2023-04-07T12:41:50;4.50;;;1.50;;
20084;SDS011;10202;48.474;9.138;2023-04-07T12:44:19;2.05;;;1.58;;
20084;SDS011;10202;48.474;9.138;2023-04-07T12:46:45;5.88;;;2.22;;
20084;SDS011;10202;48.474;9.138;2023-04-07T12:49:13;3.35;;;1.50;;
20084;SDS011;10202;48.474;9.138;2023-04-07T12:51:43;2.17;;;1.30;;
20084;SDS011;10202;48.474;9.138;2023-04-07T12:54:14;3.58;;;1.42;;
20084;SDS011;10202;48.474;9.138;2023-04-07T12:56:42;1.27;;;1.17;;
20084;SDS011;10202;48.474;9.138;2023-04-07T12:59:08;2.08;;;1.20;;
20084;SDS011;10202;48.474;9.138;2023-04-07T13:01:38;3.53;;;1.48;;
20084;SDS011;10202;48.474;9.138;2023-04-07T13:04:06;2.63;;;1.30;;
20084;SDS011;10202;48.474;9.138;2023-04-07T13:06:36;1.92;;;1.20;;
20084;SDS011;10202;48.474;9.138;2023-04-07T13:09:05;3.42;;;1.20;;
20084;SDS011;10202;48.474;9.138;2023-04-07T13:11:31;1.35;;;1.13;;
20084;SDS011;10202;48.474;9.138;2023-04-07T13:14:04;2.67;;;1.40;;
20084;SDS011;10202;48.474;9.138;2023-04-07T13:16:30;2.90;;;1.65;;
20084;SDS011;10202;48.474;9.138;2023-04-07T13:18:55;1.70;;;1.25;;
20084;SDS011;10202;48.474;9.138;2023-04-07T13:21:23;2.22;;;1.30;;
20084;SDS011;10202;48.474;9.138;2023-04-07T13:23:54;1.88;;;1.70;;
20084;SDS011;10202;48.474;9.138;2023-04-07T13:26:20;1.55;;;1.25;;
20084;SDS011;10202;48.474;9.138;2023-04-07T13:28:48;2.00;;;1.20;;
20084;SDS011;10202;48.474;9.138;2023-04-07T13:31:17;2.28;;;1.70;;
20084;SDS011;10202;48.474;9.138;2023-04-07T13:33:49;1.40;;;1.13;;
20084;SDS011;10202;48.474;9.138;2023-04-07T13:36:15;2.10;;;1.35;;
20084;SDS011;10202;48.474;9.138;2023-04-07T13:38:43;1.95;;;1.40;;
20084;SDS011;10202;48.474;9.138;2023-04-07T13:41:13;1.67;;;1.10;;
20084;SDS011;10202;48.474;9.138;2023-04-07T13:43:41;3.40;;;1.30;;
20084;SDS011;10202;48.474;9.138;2023-04-07T13:46:11;1.95;;;1.10;;
20084;SDS011;10202;48.474;9.138;2023-04-07T13:48:40;3.08;;;1.00;;
20084;SDS011;10202;48.474;9.138;2023-04-07T13:51:11;1.27;;;0.90;;
20084;SDS011;10202;48.474;9.138;2023-04-07T13:53:36;1.85;;;0.90;;
20084;SDS011;10202;48.474;9.138;2023-04-07T13:56:02;0.98;;;0.98;;
20084;SDS011;10202;48.474;9.138;2023-04-07T13:58:33;3.22;;;1.08;;
20084;SDS011;10202;48.474;9.138;2023-04-07T14:00:59;2.60;;;1.17;;
20084;SDS011;10202;48.474;9.138;2023-04-07T14:03:27;1.20;;;1.10;;
20084;SDS011;10202;48.474;9.138;2023-04-07T14:05:56;0.95;;;0.85;;
20084;SDS011;10202;48.474;9.138;2023-04-07T14:08:25;2.28;;;0.98;;
20084;SDS011;10202;48.474;9.138;2023-04-07T14:10:55;2.72;;;1.10;;
20084;SDS011;10202;48.474;9.138;2023-04-07T14:13:25;3.67;;;1.20;;
20084;SDS011;10202;48.474;9.138;2023-04-07T14:15:53;1.70;;;1.17;;
20084;SDS011;10202;48.474;9.138;2023-04-07T14:18:22;1.85;;;1.10;;
20084;SDS011;10202;48.474;9.138;2023-04-07T14:20:51;1.10;;;0.98;;
20084;SDS011;10202;48.474;9.138;2023-04-07T14:23:19;1.40;;;1.00;;
20084;SDS011;10202;48.474;9.138;2023-04-07T14:25:44;2.45;;;1.17;;
20084;SDS011;10202;48.474;9.138;2023-04-07T14:28:12;1.98;;;1.58;;
20084;SDS011;10202;48.474;9.138;2023-04-07T14:30:38;2.83;;;1.30;;
20084;SDS011;10202;48.474;9.138;2023-04-07T14:33:06;3.60;;;1.17;;
20084;SDS011;10202;48.474;9.138;2023-04-07T14:35:37;2.55;;;1.20;;
20084;SDS011;10202;48.474;9.138;2023-04-07T14:38:08;2.03;;;1.20;;
20084;SDS011;10202;48.474;9.138;2023-04-07T14:40:37;1.40;;;1.30;;
20084;SDS011;10202;48.474;9.138;2023-04-07T14:43:03;1.55;;;1.45;;
20084;SDS011;10202;48.474;9.138;2023-04-07T14:45:36;1.77;;;1.42;;
20084;SDS011;10202;48.474;9.138;2023-04-07T14:48:07;3.03;;;1.40;;
20084;SDS011;10202;48.474;9.138;2023-04-07T14:50:36;4.20;;;2.00;;
20084;SDS011;10202;48.474;9.138;2023-04-07T14:53:06;3.10;;;1.48;;
20084;SDS011;10202;48.474;9.138;2023-04-07T14:55:35;6.55;;;1.98;;
20084;SDS011;10202;48.474;9.138;2023-04-07T14:58:05;3.67;;;2.08;;
20084;SDS011;10202;48.474;9.138;2023-04-07T15:00:35;3.35;;;1.83;;
20084;SDS011;10202;48.474;9.138;2023-04-07T15:03:01;1.58;;;1.48;;
20084;SDS011;10202;48.474;9.138;2023-04-07T15:05:31;5.05;;;2.10;;
20084;SDS011;10202;48.474;9.138;2023-04-07T15:07:57;2.15;;;1.65;;
20084;SDS011;10202;48.474;9.138;2023-04-07T15:10:28;4.60;;;2.10;;
20084;SDS011;10202;48.474;9.138;2023-04-07T15:12:59;3.58;;;1.90;;
20084;SDS011;10202;48.474;9.138;2023-04-07T15:15:27;3.53;;;2.42;;
20084;SDS011;10202;48.474;9.138;2023-04-07T15:17:52;4.13;;;2.80;;
20084;SDS011;10202;48.474;9.138;2023-04-07T15:20:21;3.65;;;2.47;;
20084;SDS011;10202;48.474;9.138;2023-04-07T15:22:55;4.03;;;1.70;;
20084;SDS011;10202;48.474;9.138;2023-04-07T15:25:22;7.70;;;1.92;;